createdAt,value
2018-02-10T00:04:26.728Z,49.10
2018-02-10T00:06:54.165Z,49.37
2018-02-10T00:09:21.862Z,47.80
2018-02-10T00:11:49.318Z,51.60
2018-02-10T00:14:16.800Z,52.30
2018-02-10T00:16:44.254Z,51.07
2018-02-10T00:19:11.816Z,52.80
2018-02-10T00:21:39.240Z,52.90
2018-02-10T00:24:06.721Z,54.57
2018-02-10T00:26:34.361Z,52.33
2018-02-10T00:29:01.826Z,62.10
2018-02-10T00:31:37.892Z,51.13
2018-02-10T00:34:16.500Z,53.30
2018-02-10T00:36:45.405Z,50.47
2018-02-10T00:39:13.114Z,50.43
2018-02-10T00:41:40.586Z,49.00
2018-02-10T00:44:08.023Z,53.97
2018-02-10T00:46:35.780Z,50.33
2018-02-10T00:49:03.355Z,50.50
2018-02-10T00:51:30.811Z,46.27
2018-02-10T00:53:58.268Z,54.67
2018-02-10T00:56:25.785Z,55.03
2018-02-10T00:58:53.361Z,43.40
2018-02-10T01:01:20.800Z,50.30
2018-02-10T01:03:48.240Z,49.30
2018-02-10T01:06:15.756Z,53.40
2018-02-10T01:08:43.211Z,51.60
2018-02-10T01:11:10.674Z,48.58
2018-02-10T01:13:38.237Z,52.10
2018-02-10T01:16:05.702Z,49.53
2018-02-10T01:18:33.144Z,51.30
2018-02-10T01:21:00.578Z,53.30
2018-02-10T01:23:28.112Z,47.50
2018-02-10T01:25:55.563Z,54.17
2018-02-10T01:28:23.012Z,48.47
2018-02-10T01:30:50.447Z,54.83
2018-02-10T01:33:17.909Z,54.53
2018-02-10T01:35:45.329Z,48.87
2018-02-10T01:38:12.780Z,53.35
2018-02-10T01:40:40.268Z,50.13
2018-02-10T01:43:07.713Z,54.53
2018-02-10T01:45:36.048Z,53.40
2018-02-10T01:48:03.512Z,53.63
2018-02-10T01:50:30.947Z,51.50
2018-02-10T01:52:58.384Z,48.90
2018-02-10T01:55:25.899Z,51.40
2018-02-10T01:57:53.324Z,54.70
2018-02-10T02:00:20.837Z,55.90
2018-02-10T02:02:48.274Z,50.03
2018-02-10T02:05:15.727Z,57.53
2018-02-10T02:07:43.152Z,52.77
2018-02-10T02:10:10.629Z,53.90
2018-02-10T02:12:38.100Z,54.23
2018-02-10T02:15:06.166Z,53.17
2018-02-10T02:17:33.605Z,53.10
2018-02-10T02:20:01.057Z,52.88
2018-02-10T02:22:28.497Z,58.00
2018-02-10T02:24:55.956Z,49.70
2018-02-10T02:27:23.393Z,54.20
2018-02-10T02:29:50.845Z,51.80
2018-02-10T02:32:18.279Z,53.50
2018-02-10T02:34:45.740Z,53.53
2018-02-10T02:37:13.174Z,55.20
2018-02-10T02:39:40.620Z,50.80
2018-02-10T02:42:08.070Z,50.20
2018-02-10T02:44:36.447Z,48.23
2018-02-10T02:47:03.932Z,56.37
2018-02-10T02:49:31.366Z,49.47
2018-02-10T02:51:58.846Z,51.97
2018-02-10T02:54:26.285Z,50.53
2018-02-10T02:56:53.805Z,55.57
2018-02-10T02:59:21.248Z,51.33
2018-02-10T03:01:48.707Z,50.08
2018-02-10T03:04:16.140Z,52.90
2018-02-10T03:06:43.596Z,51.90
2018-02-10T03:09:14.187Z,49.20
2018-02-10T03:11:41.631Z,48.47
2018-02-10T03:14:09.069Z,53.87
2018-02-10T03:16:36.525Z,46.50
2018-02-10T03:19:03.956Z,56.73
2018-02-10T03:21:31.428Z,53.93
2018-02-10T03:23:59.613Z,51.07
2018-02-10T03:26:27.169Z,52.63
2018-02-10T03:28:54.628Z,53.57
2018-02-10T03:31:22.075Z,53.97
2018-02-10T03:33:49.553Z,52.53
2018-02-10T03:36:16.994Z,56.50
2018-02-10T03:38:44.447Z,51.27
2018-02-10T03:41:11.960Z,54.50
2018-02-10T03:43:39.431Z,57.03
2018-02-10T03:46:06.877Z,55.20
2018-02-10T03:48:34.392Z,53.87
2018-02-10T03:51:01.820Z,54.73
2018-02-10T03:53:29.299Z,54.60
2018-02-10T03:55:56.749Z,57.53
2018-02-10T03:58:24.384Z,56.75
2018-02-10T04:00:51.830Z,62.97
2018-02-10T04:03:19.280Z,57.97
2018-02-10T04:05:46.740Z,56.23
2018-02-10T04:08:14.194Z,52.42
2018-02-10T04:10:41.652Z,57.47
2018-02-10T04:13:09.117Z,53.83
2018-02-10T04:15:40.933Z,54.10
2018-02-10T04:18:09.702Z,53.12
2018-02-10T04:20:37.912Z,57.67
2018-02-10T04:23:05.445Z,53.50
2018-02-10T04:25:32.927Z,54.70
2018-02-10T04:28:00.372Z,54.87
2018-02-10T04:30:27.806Z,54.53
2018-02-10T04:32:55.255Z,54.27
2018-02-10T04:35:22.696Z,55.58
2018-02-10T04:37:50.220Z,55.25
2018-02-10T04:40:17.634Z,56.00
2018-02-10T04:42:45.090Z,53.80
2018-02-10T04:45:12.516Z,55.12
2018-02-10T04:47:40.088Z,62.23
2018-02-10T04:50:07.542Z,59.10
2018-02-10T04:52:34.996Z,59.17
2018-02-10T04:55:02.473Z,55.20
2018-02-10T04:57:29.930Z,51.97
2018-02-10T04:59:57.449Z,56.07
2018-02-10T05:02:24.913Z,56.37
2018-02-10T05:04:52.340Z,56.70
2018-02-10T05:07:20.276Z,57.10
2018-02-10T05:09:47.761Z,57.45
2018-02-10T05:12:15.208Z,60.03
2018-02-10T05:14:42.652Z,58.70
2018-02-10T05:17:10.111Z,61.63
2018-02-10T05:19:37.558Z,56.10
2018-02-10T05:22:05.025Z,52.23
2018-02-10T05:24:32.472Z,61.33
2018-02-10T05:26:59.900Z,56.03
2018-02-10T05:29:27.352Z,60.13
2018-02-10T05:31:54.790Z,58.40
2018-02-10T05:34:22.247Z,56.22
2018-02-10T05:36:49.675Z,53.50
2018-02-10T05:39:17.153Z,48.07
2018-02-10T05:41:44.668Z,58.40
2018-02-10T05:44:12.113Z,52.97
2018-02-10T05:46:39.535Z,57.10
2018-02-10T05:49:07.116Z,57.87
2018-02-10T05:51:34.549Z,60.00
2018-02-10T05:54:02.001Z,58.22
2018-02-10T05:56:29.450Z,55.87
2018-02-10T05:58:57.036Z,55.85
2018-02-10T06:01:24.552Z,60.13
2018-02-10T06:03:51.988Z,58.95
2018-02-10T06:06:19.506Z,54.55
2018-02-10T06:08:47.113Z,54.05
2018-02-10T06:11:14.559Z,56.97
2018-02-10T06:13:42.085Z,55.17
2018-02-10T06:16:09.538Z,54.60
2018-02-10T06:18:37.173Z,53.35
2018-02-10T06:21:05.034Z,57.67
2018-02-10T06:23:32.464Z,54.25
2018-02-10T06:25:59.892Z,58.80
2018-02-10T06:28:27.351Z,54.50
2018-02-10T06:30:54.798Z,56.47
2018-02-10T06:33:22.253Z,55.33
2018-02-10T06:35:49.690Z,57.33
2018-02-10T06:38:17.130Z,55.33
2018-02-10T06:40:44.643Z,58.73
2018-02-10T06:43:12.095Z,49.78
2018-02-10T06:45:39.517Z,53.00
2018-02-10T06:48:07.531Z,48.67
2018-02-10T06:50:34.981Z,47.83
2018-02-10T06:53:02.443Z,58.17
2018-02-10T06:55:29.905Z,54.00
2018-02-10T06:57:57.361Z,49.77
2018-02-10T07:00:24.898Z,49.30
2018-02-10T07:02:52.328Z,47.20
2018-02-10T07:05:19.768Z,47.27
2018-02-10T07:07:47.205Z,50.37
2018-02-10T07:10:14.663Z,50.23
2018-02-10T07:12:42.104Z,51.63
2018-02-10T07:15:09.591Z,48.33
2018-02-10T07:17:37.428Z,44.08
2018-02-10T07:20:04.998Z,51.13
2018-02-10T07:22:32.464Z,49.23
2018-02-10T07:24:59.981Z,45.40
2018-02-10T07:27:27.461Z,46.60
2018-02-10T07:29:54.897Z,45.60
2018-02-10T07:32:22.374Z,49.00
2018-02-10T07:34:49.818Z,47.27
2018-02-10T07:37:17.459Z,44.53
2018-02-10T07:39:48.857Z,42.20
2018-02-10T07:42:16.965Z,43.50
2018-02-10T07:44:44.563Z,42.60
2018-02-10T07:47:12.017Z,39.30
2018-02-10T07:49:39.464Z,40.92
2018-02-10T07:52:07.578Z,37.97
2018-02-10T07:54:35.006Z,41.57
2018-02-10T07:57:02.470Z,39.00
2018-02-10T07:59:29.948Z,40.27
2018-02-10T08:01:57.390Z,34.53
2018-02-10T08:04:24.939Z,36.07
2018-02-10T08:06:52.380Z,35.17
2018-02-10T08:09:19.852Z,32.60
2018-02-10T08:11:47.288Z,33.60
2018-02-10T08:14:14.854Z,37.10
2018-02-10T08:16:42.319Z,34.17
2018-02-10T08:19:09.813Z,37.80
2018-02-10T08:21:37.687Z,29.52
2018-02-10T08:24:05.145Z,28.07
2018-02-10T08:26:32.620Z,32.58
2018-02-10T08:29:00.073Z,30.00
2018-02-10T08:31:27.575Z,31.37
2018-02-10T08:33:55.520Z,30.93
2018-02-10T08:36:22.959Z,29.80
2018-02-10T08:38:50.417Z,29.10
2018-02-10T08:41:17.876Z,32.17
2018-02-10T08:43:45.332Z,28.27
2018-02-10T08:46:12.781Z,30.30
2018-02-10T08:48:40.245Z,27.40
2018-02-10T08:51:07.764Z,27.75
2018-02-10T08:53:35.267Z,28.87
2018-02-10T08:56:02.724Z,31.75
2018-02-10T08:58:30.196Z,33.40
2018-02-10T09:00:57.741Z,29.10
2018-02-10T09:03:25.187Z,33.33
2018-02-10T09:05:52.660Z,29.55
2018-02-10T09:08:20.090Z,30.17
2018-02-10T09:10:47.984Z,30.62
2018-02-10T09:13:15.436Z,31.03
2018-02-10T09:15:43.008Z,29.27
2018-02-10T09:18:10.476Z,32.93
2018-02-10T09:20:37.969Z,32.15
2018-02-10T09:23:05.552Z,34.07
2018-02-10T09:25:33.000Z,31.83
2018-02-10T09:28:00.450Z,34.00
2018-02-10T09:30:27.908Z,31.85
2018-02-10T09:32:55.365Z,29.17
2018-02-10T09:35:22.837Z,30.83
2018-02-10T09:37:50.277Z,31.15
2018-02-10T09:40:17.721Z,30.70
2018-02-10T09:42:45.156Z,32.72
2018-02-10T09:45:12.928Z,29.92
2018-02-10T09:47:40.919Z,27.40
2018-02-10T09:50:08.380Z,25.67
2018-02-10T09:52:35.838Z,28.17
2018-02-10T09:55:03.293Z,28.10
2018-02-10T09:57:30.859Z,29.73
2018-02-10T09:59:58.305Z,27.70
2018-02-10T10:02:25.763Z,29.43
2018-02-10T10:04:53.190Z,29.70
2018-02-10T10:07:20.654Z,24.80
2018-02-10T10:09:48.127Z,25.67
2018-02-10T10:12:15.653Z,24.67
2018-02-10T10:14:43.149Z,26.37
2018-02-10T10:17:10.601Z,26.27
2018-02-10T10:19:38.144Z,30.40
2018-02-10T10:22:05.615Z,30.90
2018-02-10T10:24:33.049Z,26.30
2018-02-10T10:27:00.507Z,25.10
2018-02-10T10:29:33.867Z,25.93
2018-02-10T10:32:01.300Z,22.30
2018-02-10T10:34:28.772Z,24.70
2018-02-10T10:36:56.262Z,25.40
2018-02-10T10:39:24.009Z,22.70
2018-02-10T10:44:39.296Z,28.87
2018-02-10T10:47:06.900Z,22.63
2018-02-10T10:49:34.360Z,26.50
2018-02-10T10:52:01.852Z,24.93
2018-02-10T10:54:29.358Z,25.60
2018-02-10T10:56:56.856Z,26.63
2018-02-10T10:59:24.308Z,29.37
2018-02-10T11:01:51.741Z,25.25
2018-02-10T11:04:19.606Z,27.77
2018-02-10T11:06:47.257Z,27.33
2018-02-10T11:09:14.694Z,25.27
2018-02-10T11:11:42.140Z,28.87
2018-02-10T11:14:09.609Z,24.90
2018-02-10T11:16:37.084Z,28.50
2018-02-10T11:19:04.510Z,28.67
2018-02-10T11:21:31.955Z,27.67
2018-02-10T11:23:59.469Z,23.00
2018-02-10T11:26:26.996Z,28.47
2018-02-10T11:28:54.463Z,27.20
2018-02-10T11:31:21.971Z,26.13
2018-02-10T11:33:49.409Z,26.10
2018-02-10T11:36:16.881Z,28.53
2018-02-10T11:38:44.426Z,25.93
2018-02-10T11:41:11.914Z,27.73
2018-02-10T11:43:39.367Z,25.43
2018-02-10T11:46:07.546Z,26.70
2018-02-10T11:48:35.006Z,28.17
2018-02-10T11:51:02.441Z,27.40
2018-02-10T11:53:29.914Z,25.10
2018-02-10T11:55:57.364Z,27.50
2018-02-10T11:58:24.810Z,26.83
2018-02-10T12:00:53.637Z,26.60
2018-02-10T12:03:23.533Z,28.35
2018-02-10T12:05:52.780Z,25.40
2018-02-10T12:08:20.502Z,26.77
2018-02-10T12:10:47.950Z,26.03
2018-02-10T12:13:15.386Z,31.70
2018-02-10T12:15:42.834Z,32.97
2018-02-10T12:18:10.264Z,28.70
2018-02-10T12:20:37.721Z,30.00
2018-02-10T12:23:05.147Z,30.10
2018-02-10T12:25:32.642Z,29.27
2018-02-10T12:28:00.086Z,28.00
2018-02-10T12:30:27.681Z,29.80
2018-02-10T12:32:55.108Z,31.75
2018-02-10T12:35:22.563Z,26.98
2018-02-10T12:37:50.258Z,30.83
2018-02-10T12:40:17.682Z,33.67
2018-02-10T12:42:45.157Z,32.63
2018-02-10T12:45:12.687Z,29.45
2018-02-10T12:47:57.964Z,30.27
2018-02-10T12:50:25.400Z,28.10
2018-02-10T12:52:52.864Z,31.23
2018-02-10T12:55:20.416Z,31.03
2018-02-10T12:57:47.870Z,30.37
2018-02-10T13:00:15.402Z,32.73
2018-02-10T13:02:42.852Z,31.80
2018-02-10T13:05:10.290Z,31.50
2018-02-10T13:07:37.769Z,27.40
2018-02-10T13:10:05.243Z,29.73
2018-02-10T13:12:32.777Z,27.67
2018-02-10T13:15:00.928Z,32.10
2018-02-10T13:17:28.469Z,34.43
2018-02-10T13:19:55.945Z,23.65
2018-02-10T13:22:23.383Z,28.33
2018-02-10T13:24:50.905Z,26.50
2018-02-10T13:27:18.394Z,30.37
2018-02-10T13:29:45.813Z,24.60
2018-02-10T13:32:13.251Z,25.83
2018-02-10T13:34:40.753Z,25.70
2018-02-10T13:37:09.045Z,25.25
2018-02-10T13:39:36.512Z,22.73
2018-02-10T13:42:03.937Z,24.93
2018-02-10T13:44:31.369Z,25.40
2018-02-10T13:46:58.852Z,24.70
2018-02-10T13:49:26.287Z,27.13
2018-02-10T13:51:54.961Z,27.73
2018-02-10T13:54:22.449Z,23.70
2018-02-10T13:56:49.928Z,27.58
2018-02-10T13:59:17.363Z,26.93
2018-02-10T14:01:45.107Z,24.80
2018-02-10T14:04:12.532Z,25.17
2018-02-10T14:06:39.990Z,25.05
2018-02-10T14:09:07.420Z,23.30
2018-02-10T14:11:34.885Z,23.50
2018-02-10T14:14:02.333Z,22.73
2018-02-10T14:16:29.897Z,25.30
2018-02-10T14:18:57.434Z,26.43
2018-02-10T14:21:24.919Z,24.83
2018-02-10T14:23:52.368Z,24.55
2018-02-10T14:26:19.805Z,25.13
2018-02-10T14:28:47.260Z,22.42
2018-02-10T14:31:14.732Z,22.33
2018-02-10T14:33:42.189Z,30.98
2018-02-10T14:36:09.646Z,22.40
2018-02-10T14:38:37.114Z,21.10
2018-02-10T14:41:04.537Z,22.33
2018-02-10T14:43:32.041Z,19.80
2018-02-10T14:45:59.486Z,20.40
2018-02-10T14:48:26.909Z,23.20
2018-02-10T14:50:54.389Z,19.97
2018-02-10T14:53:21.826Z,20.67
2018-02-10T14:55:49.301Z,20.52
2018-02-10T14:58:16.740Z,18.48
2018-02-10T15:00:44.197Z,18.37
2018-02-10T15:03:11.629Z,17.87
2018-02-10T15:05:39.401Z,16.95
2018-02-10T15:08:06.848Z,15.70
2018-02-10T15:10:34.328Z,15.87
2018-02-10T15:13:01.750Z,16.40
2018-02-10T15:15:29.280Z,16.30
2018-02-10T15:17:56.728Z,15.32
2018-02-10T15:20:24.243Z,13.47
2018-02-10T15:22:51.713Z,12.93
2018-02-10T15:25:19.149Z,16.20
2018-02-10T15:27:46.856Z,14.97
2018-02-10T15:30:26.091Z,15.75
2018-02-10T15:33:05.446Z,18.97
2018-02-10T15:35:32.880Z,15.77
2018-02-10T15:38:00.343Z,15.77
2018-02-10T15:40:27.838Z,15.63
2018-02-10T15:42:55.290Z,13.70
2018-02-10T15:45:24.053Z,17.60
2018-02-10T15:47:51.541Z,14.02
2018-02-10T15:50:18.972Z,15.15
2018-02-10T15:52:46.410Z,15.80
2018-02-10T15:55:13.886Z,17.40
2018-02-10T15:57:41.324Z,16.53
2018-02-10T16:00:09.625Z,14.13
2018-02-10T16:02:37.074Z,16.40
2018-02-10T16:05:04.551Z,15.93
2018-02-10T16:07:31.989Z,17.03
2018-02-10T16:09:59.429Z,16.23
2018-02-10T16:12:27.085Z,15.43
2018-02-10T16:14:54.528Z,17.43
2018-02-10T16:17:21.983Z,16.33
2018-02-10T16:19:49.456Z,14.75
2018-02-10T16:22:17.094Z,16.03
2018-02-10T16:24:44.839Z,15.78
2018-02-10T16:27:12.297Z,15.20
2018-02-10T16:29:40.097Z,15.13
2018-02-10T16:32:07.546Z,16.73
2018-02-10T16:34:34.984Z,14.80
2018-02-10T16:37:02.449Z,13.23
2018-02-10T16:39:29.941Z,16.43
2018-02-10T16:41:57.469Z,17.67
2018-02-10T16:44:24.867Z,14.60
2018-02-10T16:46:52.369Z,14.38
2018-02-10T16:49:19.834Z,18.57
2018-02-10T16:51:47.261Z,15.20
2018-02-10T16:54:14.709Z,17.67
2018-02-10T16:56:42.141Z,15.40
2018-02-10T16:59:09.803Z,15.63
2018-02-10T17:01:37.233Z,17.40
2018-02-10T17:04:04.677Z,17.58
2018-02-10T17:06:32.115Z,15.73
2018-02-10T17:08:59.563Z,17.90
2018-02-10T17:11:27.005Z,15.30
2018-02-10T17:13:54.449Z,26.83
2018-02-10T17:16:21.916Z,15.57
2018-02-10T17:18:49.512Z,23.20
2018-02-10T17:21:17.042Z,20.97
2018-02-10T17:23:44.486Z,19.03
2018-02-10T17:26:11.924Z,16.70
2018-02-10T17:28:39.367Z,17.43
2018-02-10T17:31:07.864Z,20.93
2018-02-10T17:33:35.308Z,16.60
2018-02-10T17:36:02.806Z,19.50
2018-02-10T17:38:30.422Z,18.60
2018-02-10T17:40:57.870Z,21.52
2018-02-10T17:43:25.315Z,18.50
2018-02-10T17:45:52.754Z,22.60
2018-02-10T17:48:20.267Z,17.60
2018-02-10T17:50:47.713Z,14.97
2018-02-10T17:53:15.209Z,20.30
2018-02-10T17:55:42.612Z,17.20
2018-02-10T17:58:10.097Z,16.37
2018-02-10T18:00:37.533Z,15.73
2018-02-10T18:03:04.991Z,17.73
2018-02-10T18:05:32.413Z,17.63
2018-02-10T18:07:59.865Z,17.83
2018-02-10T18:10:27.313Z,17.33
2018-02-10T18:12:54.734Z,17.63
2018-02-10T18:15:22.302Z,18.83
2018-02-10T18:17:49.761Z,20.20
2018-02-10T18:20:17.290Z,18.77
2018-02-10T18:22:44.779Z,23.55
2018-02-10T18:25:12.227Z,20.97
2018-02-10T18:27:40.225Z,20.20
2018-02-10T18:30:07.749Z,20.53
2018-02-10T18:32:35.176Z,21.63
2018-02-10T18:35:02.629Z,16.90
2018-02-10T18:37:30.092Z,19.50
2018-02-10T18:39:57.626Z,24.45
2018-02-10T18:42:25.101Z,18.05
2018-02-10T18:44:52.536Z,17.92
2018-02-10T18:47:19.977Z,19.93
2018-02-10T18:49:47.422Z,19.97
2018-02-10T18:52:14.977Z,18.92
2018-02-10T18:54:42.444Z,20.27
2018-02-10T18:57:10.244Z,19.35
2018-02-10T18:59:37.674Z,22.80
2018-02-10T19:02:05.186Z,22.75
2018-02-10T19:04:32.808Z,22.93
2018-02-10T19:07:00.261Z,19.95
2018-02-10T19:09:27.720Z,21.87
2018-02-10T19:11:55.195Z,20.92
2018-02-10T19:14:22.636Z,22.63
2018-02-10T19:16:50.110Z,28.20
2018-02-10T19:19:17.544Z,23.67
2018-02-10T19:21:45.016Z,23.17
2018-02-10T19:24:12.464Z,23.83
2018-02-10T19:26:40.409Z,36.22
2018-02-10T19:29:07.884Z,24.37
2018-02-10T19:31:35.328Z,21.60
2018-02-10T19:34:02.777Z,22.03
2018-02-10T19:36:30.200Z,25.63
2018-02-10T19:38:57.689Z,24.60
2018-02-10T19:41:25.119Z,24.70
2018-02-10T19:43:52.569Z,26.40
2018-02-10T19:46:20.014Z,22.50
2018-02-10T19:48:47.457Z,27.60
2018-02-10T19:51:14.876Z,26.00
2018-02-10T19:53:42.321Z,21.43
2018-02-10T19:56:11.747Z,30.18
2018-02-10T19:58:39.243Z,24.10
2018-02-10T20:01:06.708Z,21.53
2018-02-10T20:03:34.164Z,23.13
2018-02-10T20:06:01.643Z,28.73
2018-02-10T20:08:29.205Z,30.53
2018-02-10T20:10:56.688Z,22.87
2018-02-10T20:13:24.179Z,28.07
2018-02-10T20:15:51.770Z,26.33
2018-02-10T20:18:19.249Z,24.00
2018-02-10T20:20:46.704Z,30.47
2018-02-10T20:23:14.132Z,26.67
2018-02-10T20:25:41.776Z,24.65
2018-02-10T20:28:09.212Z,26.90
2018-02-10T20:30:36.636Z,26.50
2018-02-10T20:33:04.159Z,25.07
2018-02-10T20:35:31.697Z,23.67
2018-02-10T20:37:59.401Z,25.95
2018-02-10T20:40:26.841Z,27.62
2018-02-10T20:42:54.304Z,26.08
2018-02-10T20:45:21.773Z,28.20
2018-02-10T20:47:49.225Z,37.57
2018-02-10T20:50:16.684Z,29.40
2018-02-10T20:52:44.143Z,39.13
2018-02-10T20:55:11.662Z,27.37
2018-02-10T20:57:39.143Z,28.27
2018-02-10T21:00:06.600Z,22.77
2018-02-10T21:02:34.057Z,24.37
2018-02-10T21:05:01.682Z,25.60
2018-02-10T21:07:29.136Z,24.70
2018-02-10T21:09:56.568Z,25.93
2018-02-10T21:12:24.069Z,23.43
2018-02-10T21:14:51.562Z,23.77
2018-02-10T21:17:19.013Z,26.25
2018-02-10T21:19:46.557Z,23.67
2018-02-10T21:22:13.997Z,23.87
2018-02-10T21:24:41.479Z,25.93
2018-02-10T21:27:08.941Z,27.97
2018-02-10T21:29:36.553Z,28.07
2018-02-10T21:32:04.001Z,22.83
2018-02-10T21:34:31.485Z,24.30
2018-02-10T21:36:58.905Z,22.87
2018-02-10T21:39:26.361Z,23.43
2018-02-10T21:41:54.113Z,25.80
2018-02-10T21:44:21.597Z,25.33
2018-02-10T21:46:49.131Z,21.40
2018-02-10T21:49:16.600Z,23.90
2018-02-10T21:51:44.248Z,22.83
2018-02-10T21:54:11.750Z,24.17
2018-02-10T21:56:39.239Z,21.27
2018-02-10T21:59:06.696Z,21.50
2018-02-10T22:01:34.240Z,21.20
2018-02-10T22:04:01.710Z,20.00
2018-02-10T22:06:29.150Z,18.40
2018-02-10T22:08:56.567Z,22.73
2018-02-10T22:11:24.027Z,21.83
2018-02-10T22:13:51.449Z,20.48
2018-02-10T22:16:19.022Z,22.55
2018-02-10T22:18:46.461Z,22.85
2018-02-10T22:21:13.986Z,21.98
2018-02-10T22:23:41.624Z,18.83
2018-02-10T22:26:09.261Z,17.27
2018-02-10T22:28:36.942Z,19.30
2018-02-10T22:31:04.893Z,16.00
2018-02-10T22:33:32.671Z,17.40
2018-02-10T22:36:00.347Z,18.75
2018-02-10T22:38:28.179Z,21.10
2018-02-10T22:40:56.526Z,17.70
2018-02-10T22:43:24.223Z,19.45
2018-02-10T22:45:51.718Z,18.33
2018-02-10T22:48:19.139Z,16.17
2018-02-10T22:50:46.592Z,19.57
2018-02-10T22:53:14.180Z,16.63
2018-02-10T22:55:41.766Z,14.93
2018-02-10T22:58:09.184Z,16.87
2018-02-10T23:00:36.687Z,14.80
2018-02-10T23:03:04.439Z,17.80
2018-02-10T23:05:32.491Z,14.93
2018-02-10T23:08:00.355Z,13.17
2018-02-10T23:10:28.020Z,13.43
2018-02-10T23:12:56.800Z,13.73
2018-02-10T23:15:24.516Z,13.32
2018-02-10T23:17:52.222Z,13.13
2018-02-10T23:20:19.829Z,17.70
2018-02-10T23:22:49.144Z,14.90
2018-02-10T23:25:16.918Z,13.17
2018-02-10T23:27:44.689Z,15.67
2018-02-10T23:30:12.148Z,11.85
2018-02-10T23:32:39.595Z,13.67
2018-02-10T23:35:07.085Z,11.40
2018-02-10T23:37:34.580Z,12.23
2018-02-10T23:40:02.016Z,10.20
2018-02-10T23:42:29.476Z,9.10
2018-02-10T23:44:56.913Z,11.40
2018-02-10T23:47:24.357Z,10.80
2018-02-10T23:49:52.741Z,9.33
2018-02-10T23:52:20.200Z,10.43
2018-02-10T23:54:47.629Z,11.40
2018-02-10T23:57:15.082Z,8.03
2018-02-10T23:59:42.495Z,8.80
